sensor_id;sensor_type;location;lat;lon;timestamp;P1;durP1;ratioP1;P2;durP2;ratioP2
20320;SDS011;10318;47.674;9.052;2022-07-05T00:01:20;7.55;;;1.90;;
20320;SDS011;10318;47.674;9.052;2022-07-05T00:03:47;6.63;;;1.92;;
20320;SDS011;10318;47.674;9.052;2022-07-05T00:06:14;6.00;;;1.65;;
20320;SDS011;10318;47.674;9.052;2022-07-05T00:08:41;5.05;;;1.95;;
20320;SDS011;10318;47.674;9.052;2022-07-05T00:11:07;3.75;;;1.90;;
20320;SDS011;10318;47.674;9.052;2022-07-05T00:13:34;9.05;;;2.03;;
20320;SDS011;10318;47.674;9.052;2022-07-05T00:16:01;3.17;;;1.83;;
20320;SDS011;10318;47.674;9.052;2022-07-05T00:18:27;6.90;;;1.95;;
20320;SDS011;10318;47.674;9.052;2022-07-05T00:20:54;6.82;;;1.80;;
20320;SDS011;10318;47.674;9.052;2022-07-05T00:23:21;5.57;;;1.67;;
20320;SDS011;10318;47.674;9.052;2022-07-05T00:25:47;9.52;;;1.90;;
20320;SDS011;10318;47.674;9.052;2022-07-05T00:28:14;7.03;;;1.70;;
20320;SDS011;10318;47.674;9.052;2022-07-05T00:30:41;5.55;;;1.70;;
20320;SDS011;10318;47.674;9.052;2022-07-05T00:33:08;4.25;;;1.85;;
20320;SDS011;10318;47.674;9.052;2022-07-05T00:35:35;5.65;;;2.17;;
20320;SDS011;10318;47.674;9.052;2022-07-05T00:38:02;9.85;;;1.63;;
20320;SDS011;10318;47.674;9.052;2022-07-05T00:40:29;4.45;;;1.55;;
20320;SDS011;10318;47.674;9.052;2022-07-05T00:42:55;4.95;;;2.00;;
20320;SDS011;10318;47.674;9.052;2022-07-05T00:45:22;6.05;;;1.88;;
20320;SDS011;10318;47.674;9.052;2022-07-05T00:47:49;10.02;;;1.85;;
20320;SDS011;10318;47.674;9.052;2022-07-05T00:50:16;7.53;;;1.92;;
20320;SDS011;10318;47.674;9.052;2022-07-05T00:52:42;5.22;;;1.85;;
20320;SDS011;10318;47.674;9.052;2022-07-05T00:55:09;11.23;;;2.30;;
20320;SDS011;10318;47.674;9.052;2022-07-05T00:57:36;6.70;;;1.98;;
20320;SDS011;10318;47.674;9.052;2022-07-05T01:00:04;8.55;;;2.30;;
20320;SDS011;10318;47.674;9.052;2022-07-05T01:02:31;5.90;;;2.05;;
20320;SDS011;10318;47.674;9.052;2022-07-05T01:04:57;10.23;;;2.55;;
20320;SDS011;10318;47.674;9.052;2022-07-05T01:07:24;7.45;;;2.60;;
20320;SDS011;10318;47.674;9.052;2022-07-05T01:09:52;10.88;;;2.20;;
20320;SDS011;10318;47.674;9.052;2022-07-05T01:12:19;8.95;;;2.20;;
20320;SDS011;10318;47.674;9.052;2022-07-05T01:14:45;8.30;;;2.80;;
20320;SDS011;10318;47.674;9.052;2022-07-05T01:17:14;6.50;;;2.05;;
20320;SDS011;10318;47.674;9.052;2022-07-05T01:19:41;10.32;;;2.00;;
20320;SDS011;10318;47.674;9.052;2022-07-05T01:22:12;6.18;;;2.42;;
20320;SDS011;10318;47.674;9.052;2022-07-05T01:24:42;10.35;;;2.25;;
20320;SDS011;10318;47.674;9.052;2022-07-05T01:27:09;4.40;;;1.90;;
20320;SDS011;10318;47.674;9.052;2022-07-05T01:29:36;9.57;;;2.90;;
20320;SDS011;10318;47.674;9.052;2022-07-05T01:32:03;8.05;;;2.97;;
20320;SDS011;10318;47.674;9.052;2022-07-05T01:34:30;8.35;;;2.75;;
20320;SDS011;10318;47.674;9.052;2022-07-05T01:36:57;7.43;;;2.90;;
20320;SDS011;10318;47.674;9.052;2022-07-05T01:39:23;10.30;;;2.97;;
20320;SDS011;10318;47.674;9.052;2022-07-05T01:41:50;6.47;;;3.03;;
20320;SDS011;10318;47.674;9.052;2022-07-05T01:44:17;4.20;;;2.40;;
20320;SDS011;10318;47.674;9.052;2022-07-05T01:46:43;4.80;;;2.97;;
20320;SDS011;10318;47.674;9.052;2022-07-05T01:49:11;8.43;;;3.20;;
20320;SDS011;10318;47.674;9.052;2022-07-05T01:51:50;5.68;;;2.50;;
20320;SDS011;10318;47.674;9.052;2022-07-05T01:54:18;6.68;;;2.80;;
20320;SDS011;10318;47.674;9.052;2022-07-05T01:56:45;6.55;;;2.95;;
20320;SDS011;10318;47.674;9.052;2022-07-05T01:59:12;8.88;;;2.80;;
20320;SDS011;10318;47.674;9.052;2022-07-05T02:01:39;7.28;;;3.33;;
20320;SDS011;10318;47.674;9.052;2022-07-05T02:04:07;6.45;;;3.20;;
20320;SDS011;10318;47.674;9.052;2022-07-05T02:06:34;5.35;;;2.72;;
20320;SDS011;10318;47.674;9.052;2022-07-05T02:09:05;8.70;;;3.25;;
20320;SDS011;10318;47.674;9.052;2022-07-05T02:11:33;7.78;;;3.40;;
20320;SDS011;10318;47.674;9.052;2022-07-05T02:14:00;4.57;;;3.05;;
20320;SDS011;10318;47.674;9.052;2022-07-05T02:16:31;10.48;;;6.68;;
20320;SDS011;10318;47.674;9.052;2022-07-05T02:18:58;10.25;;;6.80;;
20320;SDS011;10318;47.674;9.052;2022-07-05T02:21:28;9.38;;;7.22;;
20320;SDS011;10318;47.674;9.052;2022-07-05T02:23:55;10.85;;;7.05;;
20320;SDS011;10318;47.674;9.052;2022-07-05T02:26:25;9.65;;;6.95;;
20320;SDS011;10318;47.674;9.052;2022-07-05T02:28:53;10.85;;;6.90;;
20320;SDS011;10318;47.674;9.052;2022-07-05T02:31:19;8.85;;;6.28;;
20320;SDS011;10318;47.674;9.052;2022-07-05T02:33:49;11.32;;;8.43;;
20320;SDS011;10318;47.674;9.052;2022-07-05T02:36:20;9.48;;;8.02;;
20320;SDS011;10318;47.674;9.052;2022-07-05T02:38:47;12.02;;;8.27;;
20320;SDS011;10318;47.674;9.052;2022-07-05T02:41:14;12.05;;;8.35;;
20320;SDS011;10318;47.674;9.052;2022-07-05T02:43:44;9.15;;;7.18;;
20320;SDS011;10318;47.674;9.052;2022-07-05T02:46:12;11.30;;;7.90;;
20320;SDS011;10318;47.674;9.052;2022-07-05T02:48:39;9.48;;;6.25;;
20320;SDS011;10318;47.674;9.052;2022-07-05T02:51:07;15.85;;;7.20;;
20320;SDS011;10318;47.674;9.052;2022-07-05T02:53:34;8.98;;;6.78;;
20320;SDS011;10318;47.674;9.052;2022-07-05T02:56:03;10.98;;;5.75;;
20320;SDS011;10318;47.674;9.052;2022-07-05T02:58:30;7.22;;;5.13;;
20320;SDS011;10318;47.674;9.052;2022-07-05T03:00:58;8.35;;;4.57;;
20320;SDS011;10318;47.674;9.052;2022-07-05T03:03:30;8.55;;;4.78;;
20320;SDS011;10318;47.674;9.052;2022-07-05T03:05:58;5.63;;;5.10;;
20320;SDS011;10318;47.674;9.052;2022-07-05T03:08:25;10.45;;;5.57;;
20320;SDS011;10318;47.674;9.052;2022-07-05T03:10:53;6.93;;;4.65;;
20320;SDS011;10318;47.674;9.052;2022-07-05T03:13:19;10.63;;;5.40;;
20320;SDS011;10318;47.674;9.052;2022-07-05T03:15:46;9.85;;;4.95;;
20320;SDS011;10318;47.674;9.052;2022-07-05T03:18:18;8.52;;;5.15;;
20320;SDS011;10318;47.674;9.052;2022-07-05T03:20:45;8.52;;;4.47;;
20320;SDS011;10318;47.674;9.052;2022-07-05T03:23:12;5.00;;;4.43;;
20320;SDS011;10318;47.674;9.052;2022-07-05T03:25:45;6.07;;;3.92;;
20320;SDS011;10318;47.674;9.052;2022-07-05T03:28:12;10.98;;;4.30;;
20320;SDS011;10318;47.674;9.052;2022-07-05T03:30:41;6.80;;;4.10;;
20320;SDS011;10318;47.674;9.052;2022-07-05T03:33:08;12.27;;;5.05;;
20320;SDS011;10318;47.674;9.052;2022-07-05T03:35:37;7.15;;;4.03;;
20320;SDS011;10318;47.674;9.052;2022-07-05T03:38:04;9.30;;;3.85;;
20320;SDS011;10318;47.674;9.052;2022-07-05T03:40:31;6.70;;;4.10;;
20320;SDS011;10318;47.674;9.052;2022-07-05T03:42:59;6.38;;;3.90;;
20320;SDS011;10318;47.674;9.052;2022-07-05T03:45:30;11.90;;;4.32;;
20320;SDS011;10318;47.674;9.052;2022-07-05T03:47:57;7.60;;;4.10;;
20320;SDS011;10318;47.674;9.052;2022-07-05T03:50:37;8.07;;;4.00;;
20320;SDS011;10318;47.674;9.052;2022-07-05T03:53:05;8.88;;;4.13;;
20320;SDS011;10318;47.674;9.052;2022-07-05T03:55:31;7.70;;;4.50;;
20320;SDS011;10318;47.674;9.052;2022-07-05T03:57:58;8.63;;;4.97;;
20320;SDS011;10318;47.674;9.052;2022-07-05T04:00:25;8.85;;;4.43;;
20320;SDS011;10318;47.674;9.052;2022-07-05T04:02:59;6.15;;;4.13;;
20320;SDS011;10318;47.674;9.052;2022-07-05T04:05:26;8.30;;;4.40;;
20320;SDS011;10318;47.674;9.052;2022-07-05T04:07:54;8.88;;;4.90;;
20320;SDS011;10318;47.674;9.052;2022-07-05T04:10:26;8.82;;;4.43;;
20320;SDS011;10318;47.674;9.052;2022-07-05T04:12:53;8.05;;;3.65;;
20320;SDS011;10318;47.674;9.052;2022-07-05T04:15:22;4.00;;;2.60;;
20320;SDS011;10318;47.674;9.052;2022-07-05T04:17:50;4.45;;;2.58;;
20320;SDS011;10318;47.674;9.052;2022-07-05T04:20:17;5.90;;;2.30;;
20320;SDS011;10318;47.674;9.052;2022-07-05T04:22:44;6.97;;;2.97;;
20320;SDS011;10318;47.674;9.052;2022-07-05T04:25:13;4.47;;;2.38;;
20320;SDS011;10318;47.674;9.052;2022-07-05T04:27:44;4.47;;;2.58;;
20320;SDS011;10318;47.674;9.052;2022-07-05T04:30:11;6.18;;;2.88;;
20320;SDS011;10318;47.674;9.052;2022-07-05T04:32:39;4.13;;;2.42;;
20320;SDS011;10318;47.674;9.052;2022-07-05T04:35:06;4.22;;;2.55;;
20320;SDS011;10318;47.674;9.052;2022-07-05T04:37:33;9.52;;;3.47;;
20320;SDS011;10318;47.674;9.052;2022-07-05T04:40:00;7.05;;;3.40;;
20320;SDS011;10318;47.674;9.052;2022-07-05T04:42:27;10.48;;;3.58;;
20320;SDS011;10318;47.674;9.052;2022-07-05T04:44:54;6.93;;;3.00;;
20320;SDS011;10318;47.674;9.052;2022-07-05T04:47:21;7.38;;;3.20;;
20320;SDS011;10318;47.674;9.052;2022-07-05T04:49:48;6.45;;;3.20;;
20320;SDS011;10318;47.674;9.052;2022-07-05T04:52:14;6.40;;;3.40;;
20320;SDS011;10318;47.674;9.052;2022-07-05T04:54:41;3.83;;;2.67;;
20320;SDS011;10318;47.674;9.052;2022-07-05T04:57:08;8.80;;;3.15;;
20320;SDS011;10318;47.674;9.052;2022-07-05T04:59:34;8.60;;;3.20;;
20320;SDS011;10318;47.674;9.052;2022-07-05T05:02:01;7.05;;;2.72;;
20320;SDS011;10318;47.674;9.052;2022-07-05T05:04:28;5.68;;;3.13;;
20320;SDS011;10318;47.674;9.052;2022-07-05T05:06:55;7.25;;;2.95;;
20320;SDS011;10318;47.674;9.052;2022-07-05T05:09:22;11.73;;;3.45;;
20320;SDS011;10318;47.674;9.052;2022-07-05T05:11:48;8.25;;;3.22;;
20320;SDS011;10318;47.674;9.052;2022-07-05T05:14:15;7.93;;;3.40;;
20320;SDS011;10318;47.674;9.052;2022-07-05T05:16:42;6.28;;;3.85;;
20320;SDS011;10318;47.674;9.052;2022-07-05T05:19:08;10.20;;;3.95;;
20320;SDS011;10318;47.674;9.052;2022-07-05T05:21:35;6.78;;;3.95;;
20320;SDS011;10318;47.674;9.052;2022-07-05T05:24:02;7.10;;;4.50;;
20320;SDS011;10318;47.674;9.052;2022-07-05T05:26:29;7.88;;;4.03;;
20320;SDS011;10318;47.674;9.052;2022-07-05T05:28:55;7.18;;;3.70;;
20320;SDS011;10318;47.674;9.052;2022-07-05T05:31:22;7.78;;;3.63;;
20320;SDS011;10318;47.674;9.052;2022-07-05T05:33:49;5.72;;;3.75;;
20320;SDS011;10318;47.674;9.052;2022-07-05T05:36:16;7.25;;;4.03;;
20320;SDS011;10318;47.674;9.052;2022-07-05T05:38:42;9.88;;;3.80;;
20320;SDS011;10318;47.674;9.052;2022-07-05T05:41:16;6.40;;;4.20;;
20320;SDS011;10318;47.674;9.052;2022-07-05T05:43:42;7.28;;;3.70;;
20320;SDS011;10318;47.674;9.052;2022-07-05T05:46:09;7.43;;;3.80;;
20320;SDS011;10318;47.674;9.052;2022-07-05T05:48:36;5.85;;;3.88;;
20320;SDS011;10318;47.674;9.052;2022-07-05T05:51:02;5.80;;;4.00;;
20320;SDS011;10318;47.674;9.052;2022-07-05T05:53:29;8.40;;;4.65;;
20320;SDS011;10318;47.674;9.052;2022-07-05T05:55:56;9.70;;;4.25;;
20320;SDS011;10318;47.674;9.052;2022-07-05T05:58:23;7.82;;;4.10;;
20320;SDS011;10318;47.674;9.052;2022-07-05T06:00:52;12.88;;;4.85;;
20320;SDS011;10318;47.674;9.052;2022-07-05T06:03:20;6.25;;;4.30;;
20320;SDS011;10318;47.674;9.052;2022-07-05T06:05:47;7.70;;;4.60;;
20320;SDS011;10318;47.674;9.052;2022-07-05T06:08:14;9.07;;;4.95;;
20320;SDS011;10318;47.674;9.052;2022-07-05T06:10:41;10.70;;;4.35;;
20320;SDS011;10318;47.674;9.052;2022-07-05T06:13:08;6.22;;;4.32;;
20320;SDS011;10318;47.674;9.052;2022-07-05T06:15:34;8.70;;;4.68;;
20320;SDS011;10318;47.674;9.052;2022-07-05T06:18:01;11.68;;;4.75;;
20320;SDS011;10318;47.674;9.052;2022-07-05T06:20:29;9.38;;;5.25;;
20320;SDS011;10318;47.674;9.052;2022-07-05T06:22:57;6.95;;;4.50;;
20320;SDS011;10318;47.674;9.052;2022-07-05T06:25:24;12.45;;;4.32;;
20320;SDS011;10318;47.674;9.052;2022-07-05T06:27:51;8.40;;;4.55;;
20320;SDS011;10318;47.674;9.052;2022-07-05T06:30:19;8.80;;;5.30;;
20320;SDS011;10318;47.674;9.052;2022-07-05T06:32:47;7.10;;;3.88;;
20320;SDS011;10318;47.674;9.052;2022-07-05T06:35:14;8.07;;;4.50;;
20320;SDS011;10318;47.674;9.052;2022-07-05T06:37:45;9.88;;;4.32;;
20320;SDS011;10318;47.674;9.052;2022-07-05T06:40:12;5.65;;;3.90;;
20320;SDS011;10318;47.674;9.052;2022-07-05T06:42:43;8.88;;;4.97;;
20320;SDS011;10318;47.674;9.052;2022-07-05T06:45:10;11.13;;;4.80;;
20320;SDS011;10318;47.674;9.052;2022-07-05T06:47:37;6.40;;;4.57;;
20320;SDS011;10318;47.674;9.052;2022-07-05T06:50:04;6.32;;;3.92;;
20320;SDS011;10318;47.674;9.052;2022-07-05T06:52:31;4.57;;;4.05;;
20320;SDS011;10318;47.674;9.052;2022-07-05T06:54:59;5.20;;;4.10;;
20320;SDS011;10318;47.674;9.052;2022-07-05T06:57:26;10.55;;;4.25;;
20320;SDS011;10318;47.674;9.052;2022-07-05T06:59:57;6.95;;;4.10;;
20320;SDS011;10318;47.674;9.052;2022-07-05T07:02:45;6.55;;;4.10;;
20320;SDS011;10318;47.674;9.052;2022-07-05T07:05:12;7.07;;;3.83;;
20320;SDS011;10318;47.674;9.052;2022-07-05T07:07:41;4.72;;;3.45;;
20320;SDS011;10318;47.674;9.052;2022-07-05T07:10:26;5.47;;;3.50;;
20320;SDS011;10318;47.674;9.052;2022-07-05T07:12:55;7.97;;;3.53;;
20320;SDS011;10318;47.674;9.052;2022-07-05T07:15:22;5.10;;;3.42;;
20320;SDS011;10318;47.674;9.052;2022-07-05T07:17:49;9.15;;;3.90;;
20320;SDS011;10318;47.674;9.052;2022-07-05T07:20:16;8.60;;;3.97;;
20320;SDS011;10318;47.674;9.052;2022-07-05T07:22:42;5.95;;;3.85;;
20320;SDS011;10318;47.674;9.052;2022-07-05T07:25:09;6.05;;;3.50;;
20320;SDS011;10318;47.674;9.052;2022-07-05T07:27:42;8.25;;;3.55;;
20320;SDS011;10318;47.674;9.052;2022-07-05T07:30:13;4.65;;;2.92;;
20320;SDS011;10318;47.674;9.052;2022-07-05T07:32:40;7.63;;;3.13;;
20320;SDS011;10318;47.674;9.052;2022-07-05T07:35:07;9.60;;;3.42;;
20320;SDS011;10318;47.674;9.052;2022-07-05T07:37:34;5.53;;;3.33;;
20320;SDS011;10318;47.674;9.052;2022-07-05T07:40:02;7.85;;;3.03;;
20320;SDS011;10318;47.674;9.052;2022-07-05T07:42:29;5.25;;;3.08;;
20320;SDS011;10318;47.674;9.052;2022-07-05T07:44:56;5.63;;;3.17;;
20320;SDS011;10318;47.674;9.052;2022-07-05T07:47:22;4.75;;;2.72;;
20320;SDS011;10318;47.674;9.052;2022-07-05T07:49:49;5.13;;;2.95;;
20320;SDS011;10318;47.674;9.052;2022-07-05T07:52:16;4.75;;;2.90;;
20320;SDS011;10318;47.674;9.052;2022-07-05T07:54:42;4.63;;;3.00;;
20320;SDS011;10318;47.674;9.052;2022-07-05T07:57:09;4.78;;;2.75;;
20320;SDS011;10318;47.674;9.052;2022-07-05T07:59:36;4.20;;;2.78;;
20320;SDS011;10318;47.674;9.052;2022-07-05T08:02:03;5.88;;;2.42;;
20320;SDS011;10318;47.674;9.052;2022-07-05T08:04:29;6.15;;;3.38;;
20320;SDS011;10318;47.674;9.052;2022-07-05T08:06:56;6.43;;;3.17;;
20320;SDS011;10318;47.674;9.052;2022-07-05T08:09:23;6.65;;;2.50;;
20320;SDS011;10318;47.674;9.052;2022-07-05T08:11:50;6.97;;;2.90;;
20320;SDS011;10318;47.674;9.052;2022-07-05T08:14:16;4.43;;;2.67;;
20320;SDS011;10318;47.674;9.052;2022-07-05T08:16:43;4.47;;;2.47;;
20320;SDS011;10318;47.674;9.052;2022-07-05T08:19:17;4.65;;;2.63;;
20320;SDS011;10318;47.674;9.052;2022-07-05T08:22:02;3.88;;;2.78;;
20320;SDS011;10318;47.674;9.052;2022-07-05T08:24:28;6.00;;;2.70;;
20320;SDS011;10318;47.674;9.052;2022-07-05T08:26:55;3.60;;;2.50;;
20320;SDS011;10318;47.674;9.052;2022-07-05T08:29:22;6.00;;;2.90;;
20320;SDS011;10318;47.674;9.052;2022-07-05T08:31:50;4.97;;;2.17;;
20320;SDS011;10318;47.674;9.052;2022-07-05T08:34:18;9.98;;;2.47;;
20320;SDS011;10318;47.674;9.052;2022-07-05T08:36:45;7.05;;;2.65;;
20320;SDS011;10318;47.674;9.052;2022-07-05T08:39:13;5.93;;;2.08;;
20320;SDS011;10318;47.674;9.052;2022-07-05T08:41:41;5.72;;;1.73;;
20320;SDS011;10318;47.674;9.052;2022-07-05T08:44:08;4.90;;;1.60;;
20320;SDS011;10318;47.674;9.052;2022-07-05T08:46:38;2.15;;;1.60;;
20320;SDS011;10318;47.674;9.052;2022-07-05T08:49:06;2.75;;;1.75;;
20320;SDS011;10318;47.674;9.052;2022-07-05T08:51:38;3.33;;;1.70;;
20320;SDS011;10318;47.674;9.052;2022-07-05T08:54:07;7.18;;;1.90;;
20320;SDS011;10318;47.674;9.052;2022-07-05T08:56:34;5.38;;;2.40;;
20320;SDS011;10318;47.674;9.052;2022-07-05T08:59:21;3.45;;;1.63;;
20320;SDS011;10318;47.674;9.052;2022-07-05T09:01:48;6.57;;;2.13;;
20320;SDS011;10318;47.674;9.052;2022-07-05T09:04:16;3.45;;;1.95;;
20320;SDS011;10318;47.674;9.052;2022-07-05T09:06:45;5.03;;;2.05;;
20320;SDS011;10318;47.674;9.052;2022-07-05T09:09:12;4.40;;;1.85;;
20320;SDS011;10318;47.674;9.052;2022-07-05T09:11:42;8.18;;;2.60;;
20320;SDS011;10318;47.674;9.052;2022-07-05T09:14:30;4.63;;;2.00;;
20320;SDS011;10318;47.674;9.052;2022-07-05T09:16:57;4.35;;;1.50;;
20320;SDS011;10318;47.674;9.052;2022-07-05T09:19:23;3.55;;;1.73;;
20320;SDS011;10318;47.674;9.052;2022-07-05T09:22:00;6.75;;;2.15;;
20320;SDS011;10318;47.674;9.052;2022-07-05T09:24:28;4.93;;;2.13;;
20320;SDS011;10318;47.674;9.052;2022-07-05T09:27:01;3.95;;;1.50;;
20320;SDS011;10318;47.674;9.052;2022-07-05T09:29:28;4.38;;;1.70;;
20320;SDS011;10318;47.674;9.052;2022-07-05T09:32:22;3.75;;;1.90;;
20320;SDS011;10318;47.674;9.052;2022-07-05T09:34:49;2.13;;;1.50;;
20320;SDS011;10318;47.674;9.052;2022-07-05T09:37:15;3.22;;;1.60;;
20320;SDS011;10318;47.674;9.052;2022-07-05T09:39:42;4.15;;;1.63;;
20320;SDS011;10318;47.674;9.052;2022-07-05T09:42:17;3.70;;;1.83;;
20320;SDS011;10318;47.674;9.052;2022-07-05T09:44:55;3.85;;;1.50;;
20320;SDS011;10318;47.674;9.052;2022-07-05T09:47:27;3.00;;;1.70;;
20320;SDS011;10318;47.674;9.052;2022-07-05T09:49:55;3.97;;;1.95;;
20320;SDS011;10318;47.674;9.052;2022-07-05T09:52:35;4.18;;;1.63;;
20320;SDS011;10318;47.674;9.052;2022-07-05T09:57:38;4.35;;;1.60;;
20320;SDS011;10318;47.674;9.052;2022-07-05T10:00:11;3.88;;;1.17;;
20320;SDS011;10318;47.674;9.052;2022-07-05T10:05:15;3.90;;;1.35;;
20320;SDS011;10318;47.674;9.052;2022-07-05T10:07:44;1.30;;;1.02;;
20320;SDS011;10318;47.674;9.052;2022-07-05T10:10:11;3.80;;;1.83;;
20320;SDS011;10318;47.674;9.052;2022-07-05T10:12:38;0.98;;;0.80;;
20320;SDS011;10318;47.674;9.052;2022-07-05T10:15:06;2.60;;;1.20;;
20320;SDS011;10318;47.674;9.052;2022-07-05T10:17:35;6.30;;;1.10;;
20320;SDS011;10318;47.674;9.052;2022-07-05T10:20:03;2.45;;;1.20;;
20320;SDS011;10318;47.674;9.052;2022-07-05T10:22:31;0.85;;;0.73;;
20320;SDS011;10318;47.674;9.052;2022-07-05T10:24:59;2.45;;;0.95;;
20320;SDS011;10318;47.674;9.052;2022-07-05T10:27:26;1.73;;;0.80;;
20320;SDS011;10318;47.674;9.052;2022-07-05T10:29:54;3.30;;;0.90;;
20320;SDS011;10318;47.674;9.052;2022-07-05T10:32:22;1.88;;;0.90;;
20320;SDS011;10318;47.674;9.052;2022-07-05T10:34:51;1.30;;;0.70;;
20320;SDS011;10318;47.674;9.052;2022-07-05T10:37:31;1.85;;;0.70;;
20320;SDS011;10318;47.674;9.052;2022-07-05T10:39:59;2.53;;;0.85;;
20320;SDS011;10318;47.674;9.052;2022-07-05T10:42:28;2.58;;;1.10;;
20320;SDS011;10318;47.674;9.052;2022-07-05T10:44:56;2.72;;;0.70;;
20320;SDS011;10318;47.674;9.052;2022-07-05T10:47:23;1.13;;;0.52;;
20320;SDS011;10318;47.674;9.052;2022-07-05T10:50:04;3.35;;;0.70;;
20320;SDS011;10318;47.674;9.052;2022-07-05T10:52:31;4.57;;;0.93;;
20320;SDS011;10318;47.674;9.052;2022-07-05T10:57:43;5.43;;;1.08;;
20320;SDS011;10318;47.674;9.052;2022-07-05T11:00:10;1.38;;;0.90;;
20320;SDS011;10318;47.674;9.052;2022-07-05T11:02:37;1.92;;;0.90;;
20320;SDS011;10318;47.674;9.052;2022-07-05T11:05:04;5.28;;;0.95;;
20320;SDS011;10318;47.674;9.052;2022-07-05T11:10:16;2.55;;;1.10;;
20320;SDS011;10318;47.674;9.052;2022-07-05T11:12:43;2.67;;;1.10;;
20320;SDS011;10318;47.674;9.052;2022-07-05T11:15:10;2.13;;;1.00;;
20320;SDS011;10318;47.674;9.052;2022-07-05T11:17:37;2.00;;;0.90;;
20320;SDS011;10318;47.674;9.052;2022-07-05T11:20:31;2.25;;;0.90;;
20320;SDS011;10318;47.674;9.052;2022-07-05T11:25:29;2.80;;;0.82;;
20320;SDS011;10318;47.674;9.052;2022-07-05T11:28:00;2.35;;;0.90;;
20320;SDS011;10318;47.674;9.052;2022-07-05T11:30:28;2.45;;;0.80;;
20320;SDS011;10318;47.674;9.052;2022-07-05T11:32:55;6.45;;;1.02;;
20320;SDS011;10318;47.674;9.052;2022-07-05T11:35:28;1.90;;;0.82;;
20320;SDS011;10318;47.674;9.052;2022-07-05T11:37:59;3.72;;;0.95;;
20320;SDS011;10318;47.674;9.052;2022-07-05T11:40:46;1.65;;;0.80;;
20320;SDS011;10318;47.674;9.052;2022-07-05T11:43:13;3.38;;;0.80;;
20320;SDS011;10318;47.674;9.052;2022-07-05T11:45:40;5.85;;;1.13;;
20320;SDS011;10318;47.674;9.052;2022-07-05T11:48:08;3.67;;;0.88;;
20320;SDS011;10318;47.674;9.052;2022-07-05T11:50:41;1.50;;;0.90;;
20320;SDS011;10318;47.674;9.052;2022-07-05T11:53:07;2.47;;;0.80;;
20320;SDS011;10318;47.674;9.052;2022-07-05T11:55:38;4.93;;;1.15;;
20320;SDS011;10318;47.674;9.052;2022-07-05T11:58:08;1.73;;;0.80;;
20320;SDS011;10318;47.674;9.052;2022-07-05T12:00:36;1.90;;;0.70;;
20320;SDS011;10318;47.674;9.052;2022-07-05T12:03:12;3.13;;;0.90;;
20320;SDS011;10318;47.674;9.052;2022-07-05T12:05:39;2.67;;;0.75;;
20320;SDS011;10318;47.674;9.052;2022-07-05T12:08:08;1.58;;;0.82;;
20320;SDS011;10318;47.674;9.052;2022-07-05T12:10:36;7.88;;;0.80;;
20320;SDS011;10318;47.674;9.052;2022-07-05T12:13:47;2.95;;;1.00;;
20320;SDS011;10318;47.674;9.052;2022-07-05T12:16:14;2.45;;;0.90;;
20320;SDS011;10318;47.674;9.052;2022-07-05T12:21:14;2.75;;;0.95;;
20320;SDS011;10318;47.674;9.052;2022-07-05T12:23:41;5.10;;;0.80;;
20320;SDS011;10318;47.674;9.052;2022-07-05T12:26:09;4.30;;;0.90;;
20320;SDS011;10318;47.674;9.052;2022-07-05T12:28:36;1.67;;;0.88;;
20320;SDS011;10318;47.674;9.052;2022-07-05T12:33:45;2.10;;;0.80;;
20320;SDS011;10318;47.674;9.052;2022-07-05T12:36:16;3.10;;;1.10;;
20320;SDS011;10318;47.674;9.052;2022-07-05T12:38:43;1.40;;;1.00;;
20320;SDS011;10318;47.674;9.052;2022-07-05T12:41:10;1.60;;;0.77;;
20320;SDS011;10318;47.674;9.052;2022-07-05T12:43:50;1.10;;;0.80;;
20320;SDS011;10318;47.674;9.052;2022-07-05T12:46:17;2.40;;;1.15;;
20320;SDS011;10318;47.674;9.052;2022-07-05T12:48:50;1.77;;;1.10;;
20320;SDS011;10318;47.674;9.052;2022-07-05T12:51:30;1.98;;;0.90;;
20320;SDS011;10318;47.674;9.052;2022-07-05T12:53:57;3.67;;;1.00;;
20320;SDS011;10318;47.674;9.052;2022-07-05T12:56:49;2.63;;;1.00;;
20320;SDS011;10318;47.674;9.052;2022-07-05T13:00:00;4.18;;;0.90;;
20320;SDS011;10318;47.674;9.052;2022-07-05T13:02:37;3.95;;;0.80;;
20320;SDS011;10318;47.674;9.052;2022-07-05T13:05:06;4.60;;;1.10;;
20320;SDS011;10318;47.674;9.052;2022-07-05T13:07:40;2.80;;;0.80;;
20320;SDS011;10318;47.674;9.052;2022-07-05T13:10:14;2.22;;;1.23;;
20320;SDS011;10318;47.674;9.052;2022-07-05T13:12:41;1.55;;;1.05;;
20320;SDS011;10318;47.674;9.052;2022-07-05T13:15:08;6.60;;;1.10;;
20320;SDS011;10318;47.674;9.052;2022-07-05T13:17:35;2.28;;;1.08;;
20320;SDS011;10318;47.674;9.052;2022-07-05T13:20:02;4.90;;;1.02;;
20320;SDS011;10318;47.674;9.052;2022-07-05T13:22:30;3.03;;;1.25;;
20320;SDS011;10318;47.674;9.052;2022-07-05T13:24:56;1.42;;;0.85;;
20320;SDS011;10318;47.674;9.052;2022-07-05T13:27:23;1.25;;;0.63;;
20320;SDS011;10318;47.674;9.052;2022-07-05T13:29:55;1.98;;;0.80;;
20320;SDS011;10318;47.674;9.052;2022-07-05T13:32:24;1.70;;;0.90;;
20320;SDS011;10318;47.674;9.052;2022-07-05T13:34:51;2.20;;;0.98;;
20320;SDS011;10318;47.674;9.052;2022-07-05T13:37:18;6.25;;;0.88;;
20320;SDS011;10318;47.674;9.052;2022-07-05T13:39:45;1.70;;;0.82;;
20320;SDS011;10318;47.674;9.052;2022-07-05T13:42:12;2.80;;;1.00;;
20320;SDS011;10318;47.674;9.052;2022-07-05T13:44:38;2.33;;;0.90;;
20320;SDS011;10318;47.674;9.052;2022-07-05T13:47:06;4.70;;;0.80;;
20320;SDS011;10318;47.674;9.052;2022-07-05T13:49:33;1.58;;;0.80;;
20320;SDS011;10318;47.674;9.052;2022-07-05T13:52:00;2.83;;;1.20;;
20320;SDS011;10318;47.674;9.052;2022-07-05T13:54:28;3.63;;;1.02;;
20320;SDS011;10318;47.674;9.052;2022-07-05T13:56:56;1.45;;;0.80;;
20320;SDS011;10318;47.674;9.052;2022-07-05T13:59:22;4.22;;;1.30;;
20320;SDS011;10318;47.674;9.052;2022-07-05T14:01:50;3.65;;;0.90;;
20320;SDS011;10318;47.674;9.052;2022-07-05T14:04:16;4.32;;;0.90;;
20320;SDS011;10318;47.674;9.052;2022-07-05T14:06:43;4.53;;;1.23;;
20320;SDS011;10318;47.674;9.052;2022-07-05T14:09:10;5.80;;;0.82;;
20320;SDS011;10318;47.674;9.052;2022-07-05T14:11:37;3.67;;;1.00;;
20320;SDS011;10318;47.674;9.052;2022-07-05T14:14:04;2.22;;;0.80;;
20320;SDS011;10318;47.674;9.052;2022-07-05T14:16:30;3.72;;;1.25;;
20320;SDS011;10318;47.674;9.052;2022-07-05T14:18:57;3.28;;;0.82;;
20320;SDS011;10318;47.674;9.052;2022-07-05T14:21:24;2.33;;;0.93;;
20320;SDS011;10318;47.674;9.052;2022-07-05T14:24:04;4.32;;;1.00;;
20320;SDS011;10318;47.674;9.052;2022-07-05T14:26:30;4.03;;;0.98;;
20320;SDS011;10318;47.674;9.052;2022-07-05T14:31:52;2.35;;;0.80;;
20320;SDS011;10318;47.674;9.052;2022-07-05T14:34:19;3.45;;;0.90;;
20320;SDS011;10318;47.674;9.052;2022-07-05T14:36:46;1.33;;;0.93;;
20320;SDS011;10318;47.674;9.052;2022-07-05T14:39:12;2.13;;;0.90;;
20320;SDS011;10318;47.674;9.052;2022-07-05T14:41:44;2.42;;;1.10;;
20320;SDS011;10318;47.674;9.052;2022-07-05T14:44:11;5.05;;;0.90;;
20320;SDS011;10318;47.674;9.052;2022-07-05T14:46:38;2.58;;;1.05;;
20320;SDS011;10318;47.674;9.052;2022-07-05T14:49:05;3.92;;;1.58;;
20320;SDS011;10318;47.674;9.052;2022-07-05T14:51:32;2.10;;;1.08;;
20320;SDS011;10318;47.674;9.052;2022-07-05T14:53:58;3.47;;;1.13;;
20320;SDS011;10318;47.674;9.052;2022-07-05T14:56:25;5.65;;;1.20;;
20320;SDS011;10318;47.674;9.052;2022-07-05T14:58:52;3.25;;;1.25;;
20320;SDS011;10318;47.674;9.052;2022-07-05T15:01:18;4.15;;;1.08;;
20320;SDS011;10318;47.674;9.052;2022-07-05T15:03:45;2.28;;;0.95;;
20320;SDS011;10318;47.674;9.052;2022-07-05T15:06:12;2.60;;;1.13;;
20320;SDS011;10318;47.674;9.052;2022-07-05T15:08:39;2.50;;;1.10;;
20320;SDS011;10318;47.674;9.052;2022-07-05T15:11:05;3.38;;;0.98;;
20320;SDS011;10318;47.674;9.052;2022-07-05T15:13:32;1.80;;;1.10;;
20320;SDS011;10318;47.674;9.052;2022-07-05T15:16:01;1.15;;;0.90;;